createdAt,value
2017-12-21T00:00:39.365Z,66.09
2017-12-21T00:03:09.342Z,66.07
2017-12-21T00:05:40.295Z,65.64
2017-12-21T00:08:09.417Z,65.50
2017-12-21T00:10:38.469Z,65.10
2017-12-21T00:15:44.548Z,65.06
2017-12-21T00:18:13.744Z,64.63
2017-12-21T00:20:42.941Z,64.45
2017-12-21T00:23:13.123Z,63.88
2017-12-21T00:25:42.913Z,63.91
2017-12-21T00:28:12.913Z,64.01
2017-12-21T00:30:44.650Z,64.05
2017-12-21T00:33:15.317Z,64.07
2017-12-21T00:35:44.374Z,63.68
2017-12-21T00:38:15.114Z,63.50
2017-12-21T00:40:46.495Z,64.17
2017-12-21T00:43:16.479Z,63.98
2017-12-21T00:45:53.564Z,64.20
2017-12-21T00:50:57.131Z,63.35
2017-12-21T00:53:26.071Z,63.06
2017-12-21T00:55:56.907Z,63.16
2017-12-21T00:58:26.771Z,63.44
2017-12-21T01:00:55.918Z,63.11
2017-12-21T01:03:25.114Z,62.91
2017-12-21T01:05:54.094Z,62.47
2017-12-21T01:08:23.973Z,62.58
2017-12-21T01:13:27.951Z,63.15
2017-12-21T01:15:57.192Z,63.20
2017-12-21T01:18:27.962Z,63.69
2017-12-21T01:20:56.859Z,63.36
2017-12-21T01:23:25.817Z,63.00
2017-12-21T01:25:55.784Z,63.03
2017-12-21T01:28:24.883Z,62.79
2017-12-21T01:30:53.975Z,62.48
2017-12-21T01:33:23.887Z,62.26
2017-12-21T01:35:53.810Z,62.31
2017-12-21T01:38:22.898Z,61.95
2017-12-21T01:40:52.103Z,62.24
2017-12-21T01:43:22.470Z,61.78
2017-12-21T01:45:51.415Z,62.59
2017-12-21T01:48:21.344Z,61.56
2017-12-21T01:50:51.223Z,61.64
2017-12-21T01:53:20.241Z,61.90
2017-12-21T01:55:52.806Z,61.66
2017-12-21T01:58:21.956Z,61.63
2017-12-21T02:00:53.361Z,61.08
2017-12-21T02:03:23.722Z,61.00
2017-12-21T02:05:52.717Z,61.05
2017-12-21T02:08:21.913Z,60.60
2017-12-21T02:10:50.872Z,60.30
2017-12-21T02:13:23.959Z,59.73
2017-12-21T02:15:52.959Z,59.74
2017-12-21T02:18:22.771Z,59.92
2017-12-21T02:20:53.197Z,60.05
2017-12-21T02:23:22.295Z,60.15
2017-12-21T02:25:53.406Z,59.91
2017-12-21T02:28:22.626Z,60.60
2017-12-21T02:30:51.831Z,60.12
2017-12-21T02:35:57.464Z,59.62
2017-12-21T02:38:26.463Z,59.69
2017-12-21T02:43:29.944Z,60.11
2017-12-21T02:46:00.026Z,60.50
2017-12-21T02:48:35.069Z,60.76
2017-12-21T02:51:04.314Z,60.54
2017-12-21T02:53:33.408Z,60.83
2017-12-21T02:56:03.506Z,61.42
2017-12-21T02:58:32.766Z,61.60
2017-12-21T03:01:01.961Z,61.72
2017-12-21T03:03:32.141Z,62.19
2017-12-21T03:06:01.244Z,62.71
2017-12-21T03:08:31.776Z,63.22
2017-12-21T03:11:01.891Z,63.34
2017-12-21T03:13:31.430Z,63.07
2017-12-21T03:18:36.139Z,63.35
2017-12-21T03:21:06.114Z,63.22
2017-12-21T03:26:10.579Z,63.75
2017-12-21T03:28:39.569Z,64.18
2017-12-21T03:31:08.630Z,64.06
2017-12-21T03:33:39.484Z,63.97
2017-12-21T03:36:08.384Z,63.34
2017-12-21T03:38:38.065Z,63.85
2017-12-21T03:41:07.097Z,63.99
2017-12-21T03:43:37.033Z,64.11
2017-12-21T03:46:05.924Z,63.66
2017-12-21T03:48:37.423Z,63.61
2017-12-21T03:51:06.573Z,64.43
2017-12-21T03:53:35.807Z,64.15
2017-12-21T03:58:41.433Z,63.84
2017-12-21T04:01:11.153Z,63.36
2017-12-21T04:03:41.160Z,63.42
2017-12-21T04:06:10.360Z,63.21
2017-12-21T04:08:39.355Z,63.08
2017-12-21T04:11:08.515Z,62.67
2017-12-21T04:13:37.590Z,62.65
2017-12-21T04:16:08.422Z,62.04
2017-12-21T04:18:41.036Z,61.75
2017-12-21T04:21:10.101Z,62.04
2017-12-21T04:23:39.004Z,62.04
2017-12-21T04:26:08.934Z,62.46
2017-12-21T04:28:37.953Z,63.33
2017-12-21T04:31:06.949Z,63.74
2017-12-21T04:33:35.944Z,64.12
2017-12-21T04:36:05.085Z,64.77
2017-12-21T04:38:34.064Z,64.72
2017-12-21T04:43:38.909Z,64.91
2017-12-21T04:46:07.995Z,65.04
2017-12-21T04:48:36.996Z,64.78
2017-12-21T04:51:06.182Z,63.68
2017-12-21T04:53:35.171Z,63.59
2017-12-21T04:56:06.102Z,63.37
2017-12-21T04:58:35.093Z,63.01
2017-12-21T05:01:05.380Z,63.40
2017-12-21T05:03:35.470Z,62.04
2017-12-21T05:06:04.465Z,61.98
2017-12-21T05:08:33.384Z,61.43
2017-12-21T05:11:02.515Z,60.83
2017-12-21T05:13:32.536Z,60.68
2017-12-21T05:16:01.670Z,60.50
2017-12-21T05:18:32.463Z,60.59
2017-12-21T05:21:02.586Z,59.99
2017-12-21T05:23:32.653Z,59.95
2017-12-21T05:26:02.419Z,59.33
2017-12-21T05:28:31.717Z,58.67
2017-12-21T05:31:00.814Z,58.40
2017-12-21T05:33:31.871Z,58.12
2017-12-21T05:36:01.262Z,57.87
2017-12-21T05:38:31.276Z,57.32
2017-12-21T05:43:37.119Z,56.90
2017-12-21T05:46:06.241Z,57.04
2017-12-21T05:48:36.431Z,56.98
2017-12-21T05:51:05.802Z,56.97
2017-12-21T05:53:35.822Z,56.18
2017-12-21T05:56:06.205Z,55.85
2017-12-21T05:58:35.507Z,56.07
2017-12-21T06:01:04.645Z,56.48
2017-12-21T06:03:34.909Z,55.82
2017-12-21T06:06:04.117Z,55.77
2017-12-21T06:08:33.226Z,55.34
2017-12-21T06:11:04.066Z,55.58
2017-12-21T06:13:33.300Z,55.89
2017-12-21T06:16:02.529Z,55.42
2017-12-21T06:18:32.967Z,55.71
2017-12-21T06:21:03.663Z,56.20
2017-12-21T06:23:32.958Z,56.40
2017-12-21T06:26:01.904Z,56.18
2017-12-21T06:28:31.751Z,56.47
2017-12-21T06:31:04.710Z,56.40
2017-12-21T06:33:35.024Z,56.94
2017-12-21T06:36:04.995Z,56.80
2017-12-21T06:38:33.987Z,56.81
2017-12-21T06:41:03.715Z,56.61
2017-12-21T06:43:33.667Z,56.18
2017-12-21T06:46:02.918Z,55.68
2017-12-21T06:48:33.954Z,55.95
2017-12-21T06:51:03.152Z,55.52
2017-12-21T06:53:32.261Z,55.68
2017-12-21T06:56:08.411Z,55.66
2017-12-21T06:58:37.713Z,55.39
2017-12-21T07:01:07.727Z,55.01
2017-12-21T07:03:36.863Z,55.05
2017-12-21T07:06:06.616Z,54.82
2017-12-21T07:11:11.486Z,54.46
2017-12-21T07:13:40.581Z,54.97
2017-12-21T07:16:09.540Z,54.71
2017-12-21T07:18:38.671Z,55.22
2017-12-21T07:21:08.627Z,55.60
2017-12-21T07:23:37.580Z,55.90
2017-12-21T07:26:08.113Z,56.27
2017-12-21T07:28:40.055Z,56.28
2017-12-21T07:31:10.602Z,56.47
2017-12-21T07:33:39.750Z,56.79
2017-12-21T07:36:08.729Z,56.94
2017-12-21T07:38:37.613Z,57.13
2017-12-21T07:41:06.649Z,57.39
2017-12-21T07:43:35.824Z,56.98
2017-12-21T07:46:04.804Z,56.84
2017-12-21T07:48:34.069Z,56.94
2017-12-21T07:51:04.969Z,57.03
2017-12-21T07:53:36.259Z,57.02
2017-12-21T07:56:05.989Z,57.20
2017-12-21T07:58:35.219Z,57.46
2017-12-21T08:01:04.258Z,57.01
2017-12-21T08:03:33.464Z,57.21
2017-12-21T08:06:04.550Z,56.94
2017-12-21T08:08:33.537Z,57.21
2017-12-21T08:11:02.558Z,57.27
2017-12-21T08:13:31.618Z,57.33
2017-12-21T08:16:01.809Z,57.32
2017-12-21T08:18:30.903Z,57.03
2017-12-21T08:20:59.816Z,57.31
2017-12-21T08:23:29.713Z,57.11
2017-12-21T08:28:34.242Z,56.15
2017-12-21T08:31:03.345Z,55.82
2017-12-21T08:33:33.374Z,55.57
2017-12-21T08:36:05.016Z,53.90
2017-12-21T08:38:34.217Z,53.53
2017-12-21T08:41:04.028Z,53.72
2017-12-21T08:43:33.748Z,53.36
2017-12-21T08:46:02.636Z,53.05
2017-12-21T08:48:33.354Z,52.63
2017-12-21T08:51:03.125Z,52.83
2017-12-21T08:53:32.216Z,52.50
2017-12-21T08:56:01.299Z,52.47
2017-12-21T08:58:32.106Z,52.28
2017-12-21T09:01:02.119Z,52.41
2017-12-21T09:03:31.308Z,52.54
2017-12-21T09:06:03.019Z,52.44
2017-12-21T09:08:32.003Z,51.35
2017-12-21T09:11:01.215Z,50.87
2017-12-21T09:13:32.005Z,50.21
2017-12-21T09:16:01.168Z,50.07
2017-12-21T09:18:30.809Z,50.15
2017-12-21T09:23:36.553Z,51.61
2017-12-21T09:26:06.688Z,52.12
2017-12-21T09:28:35.769Z,51.13
2017-12-21T09:31:07.142Z,50.57
2017-12-21T09:33:36.353Z,51.15
2017-12-21T09:36:10.949Z,51.07
2017-12-21T09:38:39.861Z,49.98
2017-12-21T09:41:09.678Z,50.34
2017-12-21T09:43:38.771Z,50.76
2017-12-21T09:46:08.792Z,49.91
2017-12-21T09:48:37.903Z,49.81
2017-12-21T09:51:07.008Z,50.11
2017-12-21T09:53:35.980Z,50.37
2017-12-21T09:56:12.531Z,49.88
2017-12-21T09:58:42.080Z,49.30
2017-12-21T10:01:11.986Z,49.80
2017-12-21T10:03:41.185Z,50.11
2017-12-21T10:06:11.226Z,50.37
2017-12-21T10:08:40.176Z,50.79
2017-12-21T10:11:10.521Z,50.96
2017-12-21T10:13:42.052Z,50.55
2017-12-21T10:16:11.936Z,50.08
2017-12-21T10:18:41.217Z,49.09
2017-12-21T10:21:10.121Z,50.05
2017-12-21T10:26:15.065Z,47.25
2017-12-21T10:28:44.691Z,45.45
2017-12-21T10:31:16.176Z,45.67
2017-12-21T10:33:45.742Z,45.82
2017-12-21T10:36:15.204Z,46.08
2017-12-21T10:38:50.919Z,46.01
2017-12-21T10:41:20.783Z,46.83
2017-12-21T10:43:50.097Z,47.29
2017-12-21T10:46:20.533Z,47.91
2017-12-21T10:48:49.488Z,47.86
2017-12-21T10:51:18.582Z,47.36
2017-12-21T10:53:47.487Z,47.89
2017-12-21T10:56:16.589Z,47.50
2017-12-21T10:58:45.602Z,48.30
2017-12-21T11:03:50.340Z,47.91
2017-12-21T11:06:19.546Z,47.68
2017-12-21T11:08:48.741Z,47.89
2017-12-21T11:11:17.581Z,48.47
2017-12-21T11:13:46.397Z,48.21
2017-12-21T11:16:16.906Z,48.48
2017-12-21T11:18:45.782Z,49.19
2017-12-21T11:21:27.835Z,48.53
2017-12-21T11:23:57.004Z,49.00
2017-12-21T11:26:26.743Z,48.85
2017-12-21T11:28:55.657Z,48.85
2017-12-21T11:31:24.581Z,48.47
2017-12-21T11:33:53.451Z,48.23
2017-12-21T11:38:56.881Z,48.24
2017-12-21T11:41:25.709Z,49.02
2017-12-21T11:43:55.910Z,48.56
2017-12-21T11:46:24.763Z,48.66
2017-12-21T11:48:53.619Z,48.58
2017-12-21T11:51:22.516Z,47.63
2017-12-21T11:53:51.382Z,47.65
2017-12-21T11:56:20.221Z,47.96
2017-12-21T11:58:49.093Z,48.01
2017-12-21T12:01:17.944Z,48.49
2017-12-21T12:03:46.852Z,48.75
2017-12-21T12:06:17.440Z,48.98
2017-12-21T12:08:46.264Z,50.02
2017-12-21T12:11:15.094Z,49.76
2017-12-21T12:13:43.987Z,49.77
2017-12-21T12:16:12.799Z,50.16
2017-12-21T12:18:41.646Z,50.12
2017-12-21T12:21:11.512Z,51.18
2017-12-21T12:23:43.082Z,50.66
2017-12-21T12:26:11.912Z,50.75
2017-12-21T12:31:15.265Z,50.61
2017-12-21T12:33:44.067Z,49.96
2017-12-21T12:36:13.666Z,50.73
2017-12-21T12:38:42.941Z,50.77
2017-12-21T12:41:11.737Z,51.23
2017-12-21T12:43:40.642Z,50.95
2017-12-21T12:46:09.511Z,51.23
2017-12-21T12:48:38.428Z,50.57
2017-12-21T12:51:07.377Z,49.82
2017-12-21T12:53:36.219Z,49.72
2017-12-21T12:56:05.069Z,51.16
2017-12-21T12:58:33.960Z,51.09
2017-12-21T13:01:02.784Z,51.15
2017-12-21T13:03:31.620Z,51.02
2017-12-21T13:06:00.592Z,50.87
2017-12-21T13:08:29.445Z,51.19
2017-12-21T13:10:58.278Z,51.99
2017-12-21T13:13:28.168Z,51.57
2017-12-21T13:15:57.237Z,51.51
2017-12-21T13:18:26.398Z,51.59
2017-12-21T13:20:55.448Z,51.82
2017-12-21T13:23:24.376Z,51.42
2017-12-21T13:25:53.601Z,51.15
2017-12-21T13:28:23.094Z,51.68
2017-12-21T13:30:52.199Z,51.90
2017-12-21T13:33:22.036Z,51.71
2017-12-21T13:35:52.305Z,52.19
2017-12-21T13:38:22.311Z,52.19
2017-12-21T13:40:52.088Z,52.43
2017-12-21T13:43:22.416Z,52.66
2017-12-21T13:45:52.529Z,51.76
2017-12-21T13:48:22.464Z,51.15
2017-12-21T13:50:51.497Z,51.55
2017-12-21T13:53:21.354Z,52.27
2017-12-21T13:55:50.354Z,52.88
2017-12-21T13:58:20.260Z,53.43
2017-12-21T14:00:49.445Z,53.20
2017-12-21T14:03:18.758Z,53.77
2017-12-21T14:05:49.409Z,53.70
2017-12-21T14:08:19.240Z,54.14
2017-12-21T14:10:49.069Z,54.40
2017-12-21T14:13:18.118Z,53.92
2017-12-21T14:15:47.148Z,54.43
2017-12-21T14:18:16.208Z,53.91
2017-12-21T14:20:47.615Z,53.49
2017-12-21T14:23:17.432Z,54.29
2017-12-21T14:25:46.423Z,54.44
2017-12-21T14:28:20.607Z,54.46
2017-12-21T14:30:49.464Z,54.54
2017-12-21T14:33:18.558Z,55.34
2017-12-21T14:35:47.414Z,55.70
2017-12-21T14:38:16.366Z,55.90
2017-12-21T14:40:45.402Z,56.42
2017-12-21T14:43:14.307Z,56.54
2017-12-21T14:45:43.386Z,55.97
2017-12-21T14:48:12.612Z,56.33
2017-12-21T14:50:43.245Z,56.45
2017-12-21T14:53:12.625Z,56.57
2017-12-21T14:55:41.926Z,56.59
2017-12-21T14:58:13.010Z,56.67
2017-12-21T15:00:42.057Z,56.69
2017-12-21T15:03:12.074Z,56.54
2017-12-21T15:05:42.013Z,56.17
2017-12-21T15:08:11.605Z,55.93
2017-12-21T15:10:41.700Z,56.12
2017-12-21T15:13:13.586Z,55.94
2017-12-21T15:15:42.593Z,56.44
2017-12-21T15:18:11.672Z,56.64
2017-12-21T15:20:41.446Z,56.46
2017-12-21T15:23:10.618Z,57.10
2017-12-21T15:25:39.780Z,57.04
2017-12-21T15:28:09.505Z,57.60
2017-12-21T15:30:39.709Z,57.20
2017-12-21T15:33:09.567Z,57.07
2017-12-21T15:35:42.378Z,57.15
2017-12-21T15:38:11.499Z,57.69
2017-12-21T15:40:40.612Z,57.84
2017-12-21T15:43:11.441Z,57.55
2017-12-21T15:45:40.753Z,57.82
2017-12-21T15:48:09.932Z,58.07
2017-12-21T15:50:39.901Z,58.68
2017-12-21T15:53:08.969Z,58.58
2017-12-21T15:55:38.846Z,58.69
2017-12-21T15:58:11.373Z,59.03
2017-12-21T16:00:40.336Z,59.23
2017-12-21T16:03:09.323Z,59.41
2017-12-21T16:05:41.165Z,59.55
2017-12-21T16:08:10.176Z,59.67
2017-12-21T16:10:39.175Z,59.12
2017-12-21T16:13:09.012Z,59.33
2017-12-21T16:15:39.028Z,59.58
2017-12-21T16:18:09.456Z,59.18
2017-12-21T16:20:40.058Z,59.08
2017-12-21T16:23:12.089Z,58.73
2017-12-21T16:25:41.776Z,58.69
2017-12-21T16:28:11.153Z,58.36
2017-12-21T16:30:40.492Z,59.35
2017-12-21T16:33:09.475Z,59.53
2017-12-21T16:35:38.380Z,59.26
2017-12-21T16:38:09.592Z,59.43
2017-12-21T16:40:38.698Z,59.30
2017-12-21T16:43:07.770Z,59.09
2017-12-21T16:45:36.782Z,58.77
2017-12-21T16:48:05.754Z,58.70
2017-12-21T16:50:34.744Z,58.65
2017-12-21T16:53:03.795Z,58.56
2017-12-21T16:55:32.848Z,58.54
2017-12-21T16:58:01.896Z,58.67
2017-12-21T17:00:31.648Z,58.63
2017-12-21T17:03:00.755Z,58.49
2017-12-21T17:05:30.537Z,58.72
2017-12-21T17:07:59.649Z,58.70
2017-12-21T17:10:28.650Z,58.86
2017-12-21T17:12:59.491Z,58.91
2017-12-21T17:15:28.687Z,59.00
2017-12-21T17:17:57.814Z,59.24
2017-12-21T17:20:26.885Z,59.39
2017-12-21T17:22:56.125Z,59.38
2017-12-21T17:25:25.074Z,59.97
2017-12-21T17:27:53.989Z,59.89
2017-12-21T17:30:23.164Z,60.12
2017-12-21T17:32:53.158Z,60.09
2017-12-21T17:35:22.114Z,60.98
2017-12-21T17:37:51.173Z,61.05
2017-12-21T17:40:20.263Z,61.24
2017-12-21T17:42:49.414Z,61.59
2017-12-21T17:45:19.714Z,62.99
2017-12-21T17:47:50.394Z,62.42
2017-12-21T17:50:19.517Z,62.72
2017-12-21T17:52:48.611Z,62.81
2017-12-21T17:55:17.642Z,62.80
2017-12-21T17:57:47.744Z,63.19
2017-12-21T18:00:16.742Z,63.29
2017-12-21T18:02:46.712Z,63.55
2017-12-21T18:05:15.721Z,63.72
2017-12-21T18:07:46.265Z,63.85
2017-12-21T18:10:16.293Z,64.10
2017-12-21T18:12:45.315Z,64.18
2017-12-21T18:15:19.173Z,64.47
2017-12-21T18:17:49.959Z,64.72
2017-12-21T18:20:19.000Z,65.06
2017-12-21T18:22:51.830Z,65.28
2017-12-21T18:25:21.910Z,65.57
2017-12-21T18:27:51.058Z,67.15
2017-12-21T18:30:20.072Z,66.53
2017-12-21T18:32:51.298Z,66.45
2017-12-21T18:35:21.274Z,66.84
2017-12-21T18:37:50.399Z,67.21
2017-12-21T18:40:19.462Z,67.51
2017-12-21T18:42:49.447Z,67.76
2017-12-21T18:45:18.472Z,68.10
2017-12-21T18:47:47.621Z,68.34
2017-12-21T18:50:17.662Z,68.63
2017-12-21T18:52:46.885Z,69.16
2017-12-21T18:55:16.637Z,69.59
2017-12-21T18:57:45.981Z,69.95
2017-12-21T19:00:15.156Z,69.99
2017-12-21T19:02:45.442Z,70.13
2017-12-21T19:05:15.431Z,70.37
2017-12-21T19:07:45.110Z,70.88
2017-12-21T19:10:14.172Z,71.28
2017-12-21T19:12:43.596Z,72.04
2017-12-21T19:15:12.703Z,71.16
2017-12-21T19:17:41.842Z,71.12
2017-12-21T19:20:14.402Z,71.35
2017-12-21T19:22:43.537Z,71.48
2017-12-21T19:25:13.524Z,71.34
2017-12-21T19:27:42.863Z,71.33
2017-12-21T19:30:13.101Z,71.46
2017-12-21T19:32:42.641Z,71.93
2017-12-21T19:35:11.754Z,71.86
2017-12-21T19:37:40.682Z,72.04
2017-12-21T19:40:10.346Z,72.25
2017-12-21T19:45:17.338Z,72.98
2017-12-21T19:47:48.286Z,73.21
2017-12-21T19:50:19.319Z,72.95
2017-12-21T19:52:48.545Z,73.33
2017-12-21T19:55:17.666Z,74.83
2017-12-21T19:57:47.855Z,73.67
2017-12-21T20:00:16.945Z,73.53
2017-12-21T20:02:46.037Z,73.82
2017-12-21T20:05:16.839Z,74.03
2017-12-21T20:07:46.016Z,73.99
2017-12-21T20:10:17.148Z,73.98
2017-12-21T20:12:48.316Z,74.01
2017-12-21T20:15:18.615Z,74.35
2017-12-21T20:17:48.645Z,74.27
2017-12-21T20:20:22.414Z,74.40
2017-12-21T20:22:52.385Z,74.49
2017-12-21T20:25:21.998Z,74.53
2017-12-21T20:27:53.824Z,74.46
2017-12-21T20:30:24.684Z,74.41
2017-12-21T20:32:53.771Z,74.26
2017-12-21T20:35:22.883Z,74.11
2017-12-21T20:37:51.943Z,74.42
2017-12-21T20:40:20.934Z,74.11
2017-12-21T20:42:55.049Z,73.54
2017-12-21T20:45:26.016Z,73.64
2017-12-21T20:47:59.181Z,73.72
2017-12-21T20:50:28.439Z,73.77
2017-12-21T20:52:58.664Z,74.13
2017-12-21T20:55:27.697Z,73.84
2017-12-21T20:57:56.786Z,73.46
2017-12-21T21:03:04.395Z,73.64
2017-12-21T21:05:34.193Z,73.85
2017-12-21T21:08:04.760Z,73.47
2017-12-21T21:10:35.865Z,73.46
2017-12-21T21:13:06.438Z,73.09
2017-12-21T21:15:36.338Z,73.14
2017-12-21T21:18:05.772Z,72.94
2017-12-21T21:20:35.035Z,73.21
2017-12-21T21:23:04.156Z,72.95
2017-12-21T21:25:33.069Z,72.45
2017-12-21T21:28:03.669Z,72.10
2017-12-21T21:30:32.960Z,72.09
2017-12-21T21:33:02.056Z,72.03
2017-12-21T21:35:31.218Z,71.42
2017-12-21T21:38:00.286Z,71.20
2017-12-21T21:40:30.142Z,70.82
2017-12-21T21:42:59.288Z,70.80
2017-12-21T21:45:28.983Z,70.68
2017-12-21T21:47:57.985Z,70.71
2017-12-21T21:50:28.652Z,70.66
2017-12-21T21:52:57.620Z,70.74
2017-12-21T21:55:26.735Z,70.61
2017-12-21T21:57:55.796Z,70.54
2017-12-21T22:00:24.912Z,70.79
2017-12-21T22:02:53.972Z,70.41
2017-12-21T22:05:26.914Z,70.68
2017-12-21T22:07:56.604Z,70.12
2017-12-21T22:10:27.854Z,69.94
2017-12-21T22:12:56.857Z,70.19
2017-12-21T22:15:26.465Z,69.81
2017-12-21T22:17:55.556Z,69.42
2017-12-21T22:20:24.617Z,68.88
2017-12-21T22:22:54.943Z,68.58
2017-12-21T22:25:27.008Z,69.02
2017-12-21T22:27:57.278Z,69.67
2017-12-21T22:30:26.943Z,69.63
2017-12-21T22:32:57.254Z,69.38
2017-12-21T22:35:26.403Z,69.19
2017-12-21T22:37:59.397Z,68.90
2017-12-21T22:40:31.006Z,68.81
2017-12-21T22:43:00.230Z,68.37
2017-12-21T22:45:30.942Z,68.59
2017-12-21T22:47:59.987Z,70.62
2017-12-21T22:50:29.220Z,68.84
2017-12-21T22:52:59.072Z,69.37
2017-12-21T22:55:28.902Z,67.50
2017-12-21T23:00:42.506Z,67.51
2017-12-21T23:03:11.942Z,67.37
2017-12-21T23:05:41.927Z,67.21
2017-12-21T23:08:17.982Z,67.01
2017-12-21T23:10:47.095Z,66.91
2017-12-21T23:13:17.188Z,66.02
2017-12-21T23:15:46.200Z,65.69
2017-12-21T23:18:15.610Z,66.17
2017-12-21T23:20:45.245Z,65.16
2017-12-21T23:23:15.502Z,65.27
2017-12-21T23:25:45.483Z,64.83
2017-12-21T23:28:14.575Z,64.57
2017-12-21T23:30:43.626Z,65.05
2017-12-21T23:33:13.396Z,65.70
2017-12-21T23:35:42.308Z,63.85
2017-12-21T23:38:11.370Z,63.75
2017-12-21T23:40:40.440Z,63.15
2017-12-21T23:43:10.277Z,62.80
2017-12-21T23:48:13.348Z,63.25
2017-12-21T23:50:43.473Z,62.99
2017-12-21T23:56:14.623Z,61.48
2017-12-21T23:58:46.559Z,62.22
